Time;durP1;ratioP1;P1;durP2;ratioP2;P2;SDS_P1;SDS_P2;PMS_P1;PMS_P2;Temp;Humidity;BMP_temperature;BMP_pressure;BME280_temperature;BME280_humidity;BME280_pressure;Samples;Min_cycle;Max_cycle;Signal;HPM_P1;HPM_P2
2021/10/30 00:01:24;;;;;;;2.00;1.85;;;;;;;15.60;55.78;100529.97;3496228;28;20045;-79
2021/10/30 00:03:07;;;;;;;23.52;3.03;;;;;;;15.57;55.54;100516.16;3493266;28;20043;-78
2021/10/30 00:04:48;;;;;;;4.93;2.67;;;;;;;15.53;55.65;100518.41;3497976;28;20056;-80
2021/10/30 00:06:31;;;;;;;15.32;2.83;;;;;;;15.62;55.95;100525.25;3498985;28;20036;-82
2021/10/30 00:08:13;;;;;;;5.72;2.80;;;;;;;15.68;55.75;100523.56;3497445;28;20101;-80
2021/10/30 00:09:53;;;;;;;3.08;1.83;;;;;;;15.70;55.41;100519.69;3496783;28;20057;-80
2021/10/30 00:11:34;;;;;;;4.05;2.95;;;;;;;15.75;55.37;100523.59;3495784;28;20549;-80
2021/10/30 00:13:14;;;;;;;3.88;2.55;;;;;;;15.81;55.03;100528.16;3508237;28;20036;-80
2021/10/30 00:14:55;;;;;;;2.83;2.08;;;;;;;15.87;54.81;100521.94;3510684;28;20040;-78
2021/10/30 00:16:36;;;;;;;3.17;2.63;;;;;;;15.94;54.68;100521.94;3511507;28;20036;-78
2021/10/30 00:18:17;;;;;;;5.85;2.67;;;;;;;15.98;54.52;100528.53;3503303;28;20063;-79
2021/10/30 00:19:58;;;;;;;7.17;2.90;;;;;;;15.96;54.25;100525.25;3503343;28;20494;-80
2021/10/30 00:21:39;;;;;;;2.92;2.70;;;;;;;15.90;54.19;100533.09;3511866;28;20286;-80
2021/10/30 00:23:20;;;;;;;3.67;2.95;;;;;;;15.81;54.50;100525.47;3503412;28;20044;-78
2021/10/30 00:25:04;;;;;;;4.18;3.15;;;;;;;15.77;54.37;100530.41;3497373;28;20032;-78
2021/10/30 00:26:47;;;;;;;4.90;3.47;;;;;;;15.71;54.40;100528.56;3496871;28;20033;-80
2021/10/30 00:28:28;;;;;;;5.40;2.90;;;;;;;15.67;54.45;100520.06;3496760;28;20040;-77
2021/10/30 00:30:09;;;;;;;3.15;2.60;;;;;;;15.65;54.65;100518.63;3509205;28;20032;-79
2021/10/30 00:31:50;;;;;;;6.10;2.67;;;;;;;15.65;54.65;100516.75;3512373;28;20062;-79
2021/10/30 00:33:32;;;;;;;3.65;2.58;;;;;;;15.63;54.70;100524.19;3513906;28;20043;-79
2021/10/30 00:35:13;;;;;;;6.72;3.05;;;;;;;15.56;54.76;100517.97;3506415;28;20040;-80
2021/10/30 00:36:54;;;;;;;6.45;3.97;;;;;;;15.53;54.48;100526.47;3498565;28;20748;-78
2021/10/30 00:38:36;;;;;;;4.68;3.08;;;;;;;15.42;54.67;100517.16;3496586;28;20083;-79
2021/10/30 00:40:17;;;;;;;2.70;2.50;;;;;;;15.39;54.80;100525.63;3497095;28;20066;-77
2021/10/30 00:41:59;;;;;;;2.38;2.00;;;;;;;15.42;55.56;100527.09;3499587;28;20040;-78
2021/10/30 00:43:41;;;;;;;;;;;;;;;15.51;55.24;100531.22;3504493;28;20139;-78
2021/10/30 00:45:22;;;;;;;3.17;2.47;;;;;;;15.43;54.64;100523.34;3499535;28;19927;-81
2021/10/30 00:47:03;;;;;;;;;;;;;;;15.47;54.82;100524.63;3508644;28;20491;-80
2021/10/30 00:48:44;;;;;;;4.38;2.90;;;;;;;15.38;55.01;100510.53;3511901;28;19927;-80
2021/10/30 00:50:25;;;;;;;4.80;3.30;;;;;;;15.41;55.01;100525.41;3510695;28;20066;-81
2021/10/30 00:52:06;;;;;;;3.80;2.65;;;;;;;15.36;55.13;100509.94;3511639;28;20052;-79
2021/10/30 00:53:50;;;;;;;3.13;2.45;;;;;;;15.47;54.67;100528.13;3510765;28;20039;-80
2021/10/30 00:55:31;;;;;;;4.97;3.22;;;;;;;15.45;54.48;100532.03;3507617;28;20036;-79
2021/10/30 00:57:13;;;;;;;3.15;2.80;;;;;;;15.42;55.01;100519.03;3510819;28;20090;-78
2021/10/30 00:58:55;;;;;;;6.82;2.78;;;;;;;15.41;55.04;100525.41;3509944;28;20068;-79
2021/10/30 01:00:35;;;;;;;2.60;2.22;;;;;;;15.46;54.73;100522.94;3511288;28;20138;-80
2021/10/30 01:02:16;;;;;;;2.58;2.38;;;;;;;15.53;54.83;100529.16;3510836;28;20064;-78
2021/10/30 01:03:58;;;;;;;7.38;3.72;;;;;;;15.54;54.48;100536.19;3510614;28;20049;-79
2021/10/30 01:05:39;;;;;;;4.10;3.40;;;;;;;15.50;54.38;100526.88;3511255;28;20051;-80
2021/10/30 01:07:20;;;;;;;4.03;2.55;;;;;;;15.51;54.73;100525.84;3511629;28;20614;-81
2021/10/30 01:09:02;;;;;;;4.75;2.53;;;;;;;15.54;54.82;100525.44;3511860;28;20044;-79
2021/10/30 01:10:43;;;;;;;2.95;2.30;;;;;;;15.55;54.73;100516.34;3511985;28;20051;-81
2021/10/30 01:12:24;;;;;;;2.97;2.67;;;;;;;15.64;54.50;100531.22;3500848;28;20041;-81
2021/10/30 01:14:05;;;;;;;3.35;2.58;;;;;;;15.64;54.46;100528.56;3498885;28;20075;-79
2021/10/30 01:15:46;;;;;;;3.38;2.13;;;;;;;15.67;54.42;100528.13;3497564;28;20040;-81
2021/10/30 01:17:29;;;;;;;2.97;2.60;;;;;;;15.71;54.64;100533.94;3495129;28;20055;-80
2021/10/30 01:19:10;;;;;;;2.47;2.28;;;;;;;15.73;54.17;100531.06;3497826;28;20040;-80
2021/10/30 01:20:52;;;;;;;4.03;2.58;;;;;;;15.72;54.08;100532.06;3519106;28;20063;-82
2021/10/30 01:22:35;;;;;;;3.72;2.50;;;;;;;15.69;54.06;100534.16;3511388;28;20036;-80
2021/10/30 01:24:16;;;;;;;3.72;2.72;;;;;;;15.65;54.29;100522.13;3511197;28;20036;-80
2021/10/30 01:26:00;;;;;;;4.95;2.72;;;;;;;15.60;54.09;100524.59;3512339;28;20040;-81
2021/10/30 01:27:46;;;;;;;3.40;2.63;;;;;;;15.60;54.34;100526.47;3505548;28;20541;-78
2021/10/30 01:29:29;;;;;;;3.80;2.45;;;;;;;15.64;54.32;100525.00;3496374;28;20044;-82
2021/10/30 01:31:10;;;;;;;3.03;2.58;;;;;;;15.64;54.37;100527.69;3498121;28;20450;-81
2021/10/30 01:33:04;;;;;;;2.50;2.30;;;;;;;15.72;54.23;100532.06;3496069;28;20142;-82
2021/10/30 01:34:48;;;;;;;2.90;2.60;;;;;;;15.69;54.01;100531.47;3494896;28;20044;-80
2021/10/30 01:36:31;;;;;;;4.55;2.70;;;;;;;15.62;54.05;100529.78;3496974;28;20052;-83
2021/10/30 01:38:13;;;;;;;2.75;2.55;;;;;;;15.57;54.22;100534.97;3508161;28;20117;-81
2021/10/30 01:39:54;;;;;;;6.18;3.10;;;;;;;15.55;54.30;100543.22;3515961;28;20032;-79
2021/10/30 01:41:35;;;;;;;8.25;3.22;;;;;;;15.51;54.17;100550.00;3517375;28;20460;-81
2021/10/30 01:43:17;;;;;;;6.72;2.50;;;;;;;15.44;54.31;100538.47;3512456;28;20047;-80
2021/10/30 01:44:58;;;;;;;4.13;2.28;;;;;;;15.42;54.53;100535.16;3510847;28;20568;-81
2021/10/30 01:46:38;;;;;;;4.60;2.60;;;;;;;15.44;54.40;100538.47;3512317;28;20055;-81
2021/10/30 01:48:27;;;;;;;2.45;2.25;;;;;;;15.46;54.87;100541.75;3498321;28;20055;-81
2021/10/30 01:50:12;;;;;;;4.65;3.17;;;;;;;15.45;54.75;100540.09;3501014;28;20044;-81
2021/10/30 01:51:53;;;;;;;3.97;2.58;;;;;;;15.45;54.58;100542.78;3501436;28;20033;-81
2021/10/30 01:53:35;;;;;;;3.67;2.80;;;;;;;15.43;54.30;100548.34;3499404;28;20135;-81
2021/10/30 01:55:18;;;;;;;3.50;2.20;;;;;;;15.45;54.82;100546.28;3499285;28;20123;-82
2021/10/30 01:56:59;;;;;;;2.88;2.60;;;;;;;15.46;54.71;100549.81;3499496;28;20546;-81
2021/10/30 01:58:41;;;;;;;5.22;3.80;;;;;;;15.46;54.30;100552.50;3499375;28;20052;-82
2021/10/30 02:00:21;;;;;;;4.25;2.58;;;;;;;15.46;54.50;100539.91;3504630;28;20071;-82
2021/10/30 02:02:02;;;;;;;2.63;1.95;;;;;;;15.51;54.81;100550.00;3511310;28;20074;-81
2021/10/30 02:03:43;;;;;;;4.30;2.53;;;;;;;15.58;54.63;100555.41;3512709;28;20044;-81
2021/10/30 02:05:24;;;;;;;4.40;2.55;;;;;;;15.57;54.38;100561.81;3512594;28;20040;-82
2021/10/30 02:07:04;;;;;;;4.88;3.28;;;;;;;15.56;54.32;100555.59;3511431;28;20132;-82
2021/10/30 02:08:45;;;;;;;3.92;2.85;;;;;;;15.51;54.15;100552.69;3495284;28;20040;-82
2021/10/30 02:10:26;;;;;;;5.68;2.72;;;;;;;15.47;54.31;100551.47;3516022;28;20035;-81
2021/10/30 02:12:08;;;;;;;3.10;2.78;;;;;;;15.41;54.47;100558.50;3503510;28;20041;-80
2021/10/30 02:13:49;;;;;;;3.60;2.67;;;;;;;15.35;54.70;100553.09;3500179;28;20043;-81
2021/10/30 02:15:29;;;;;;;5.00;2.83;;;;;;;15.33;54.74;100549.78;3500903;28;20052;-81
2021/10/30 02:17:10;;;;;;;3.75;3.25;;;;;;;15.32;54.78;100554.34;3500075;28;20044;-81
2021/10/30 02:18:51;;;;;;;4.15;2.35;;;;;;;15.22;54.79;100538.63;3497149;28;20122;-81
2021/10/30 02:20:32;;;;;;;2.65;2.28;;;;;;;15.30;54.85;100556.41;3507241;28;20160;-81
2021/10/30 02:22:13;;;;;;;3.10;2.60;;;;;;;15.30;54.59;100550.22;3514315;28;20065;-81
2021/10/30 02:23:54;;;;;;;4.03;2.97;;;;;;;15.32;54.76;100556.22;3516607;28;20097;-81
2021/10/30 02:25:34;;;;;;;5.05;3.40;;;;;;;15.30;54.86;100552.91;3514972;28;20040;-80
2021/10/30 02:27:15;;;;;;;2.30;2.08;;;;;;;15.29;54.64;100559.31;3517102;28;20048;-79
2021/10/30 02:28:56;;;;;;;4.53;2.47;;;;;;;15.30;54.99;100560.94;3515398;28;20420;-80
2021/10/30 02:30:37;;;;;;;3.60;2.97;;;;;;;15.27;54.88;100564.88;3503556;28;20092;-81
2021/10/30 02:32:18;;;;;;;4.25;3.20;;;;;;;15.27;54.89;100562.19;3497560;28;20090;-79
2021/10/30 02:33:59;;;;;;;3.50;3.20;;;;;;;15.30;54.91;100574.38;3498678;28;20500;-80
2021/10/30 02:35:39;;;;;;;3.45;2.95;;;;;;;15.26;54.99;100566.75;3497148;28;20036;-80
2021/10/30 02:37:20;;;;;;;2.35;1.95;;;;;;;15.27;55.25;100563.00;3498197;28;20593;-80
2021/10/30 02:39:01;;;;;;;2.33;2.00;;;;;;;15.32;55.09;100566.97;3498453;28;20049;-81
2021/10/30 02:40:51;;;;;;;3.65;2.88;;;;;;;15.42;54.90;100570.06;3505132;28;20563;-80
2021/10/30 02:42:32;;;;;;;2.97;2.30;;;;;;;15.48;54.99;100569.25;3511973;28;20115;-81
2021/10/30 02:44:13;;;;;;;2.90;2.57;;;;;;;15.48;54.68;100570.06;3512526;28;20514;-80
2021/10/30 02:45:54;;;;;;;8.52;2.33;;;;;;;15.55;54.94;100575.44;3512205;28;20289;-81
2021/10/30 02:47:34;;;;;;;3.17;2.58;;;;;;;15.49;54.66;100577.09;3512471;28;20080;-79
2021/10/30 02:49:15;;;;;;;2.95;2.38;;;;;;;15.51;54.78;100584.94;3512702;28;20040;-79
2021/10/30 02:51:08;;;;;;;5.10;2.30;;;;;;;15.47;54.94;100576.47;3502619;28;20036;-80
2021/10/30 02:53:03;;;;;;;2.92;2.45;;;;;;;15.39;54.45;100549.00;3494995;28;20056;-79
2021/10/30 02:54:53;;;;;;;2.58;2.38;;;;;;;15.58;54.63;100580.41;3511835;28;20039;-79
2021/10/30 02:56:33;;;;;;;4.90;2.35;;;;;;;15.61;54.41;100580.00;3512785;28;20097;-80
2021/10/30 02:58:14;;;;;;;3.22;2.45;;;;;;;15.62;54.58;100565.53;3513867;28;20044;-80
2021/10/30 02:59:55;;;;;;;3.33;2.85;;;;;;;15.59;54.44;100574.03;3512326;28;20044;-80
2021/10/30 03:01:36;;;;;;;3.85;2.95;;;;;;;15.53;54.66;100564.06;3499079;28;20045;-80
2021/10/30 03:03:16;;;;;;;3.22;2.80;;;;;;;15.48;54.37;100567.38;3498558;28;20048;-80
2021/10/30 03:04:57;;;;;;;5.07;2.92;;;;;;;15.51;54.35;100573.38;3498809;28;20045;-79
2021/10/30 03:06:38;;;;;;;5.03;2.65;;;;;;;15.47;54.64;100568.41;3498886;28;20170;-79
2021/10/30 03:08:18;;;;;;;5.53;2.78;;;;;;;15.47;54.68;100579.16;3499266;28;20044;-79
2021/10/30 03:09:59;;;;;;;4.00;2.47;;;;;;;15.45;54.64;100577.72;3500019;28;20474;-79
2021/10/30 03:11:40;;;;;;;4.80;2.67;;;;;;;15.42;54.54;100575.44;3512416;28;20043;-81
2021/10/30 03:13:20;;;;;;;3.75;2.72;;;;;;;15.39;54.63;100575.84;3512415;28;20044;-80
2021/10/30 03:15:02;;;;;;;3.60;2.55;;;;;;;15.33;54.70;100582.03;3512588;28;20127;-80
2021/10/30 03:16:43;;;;;;;6.70;2.40;;;;;;;15.27;54.76;100579.13;3513548;28;20043;-80
2021/10/30 03:18:24;;;;;;;2.65;2.13;;;;;;;15.26;54.79;100572.09;3512468;28;20051;-81
2021/10/30 03:20:05;;;;;;;3.83;2.88;;;;;;;15.22;54.71;100581.59;3504574;28;20036;-80
2021/10/30 03:21:46;;;;;;;3.17;2.80;;;;;;;15.20;54.70;100586.34;3498849;28;20499;-82
2021/10/30 03:23:27;;;;;;;3.45;3.05;;;;;;;15.16;54.86;100582.41;3497132;28;20086;-78
2021/10/30 03:25:08;;;;;;;3.75;2.47;;;;;;;15.14;55.09;100579.09;3497522;28;20068;-79
2021/10/30 03:26:49;;;;;;;3.38;3.00;;;;;;;15.12;54.94;100581.16;3497796;28;20037;-80
2021/10/30 03:28:29;;;;;;;4.47;2.92;;;;;;;15.12;54.93;100574.97;3499619;28;20409;-81
2021/10/30 03:30:11;;;;;;;3.08;2.30;;;;;;;15.06;55.18;100571.22;3506315;28;20040;-82
2021/10/30 03:31:51;;;;;;;3.83;3.10;;;;;;;15.08;55.20;100579.91;3514975;28;20476;-80
2021/10/30 03:33:32;;;;;;;4.47;2.92;;;;;;;15.03;55.19;100579.69;3513176;28;20043;-82
2021/10/30 03:35:13;;;;;;;3.40;3.08;;;;;;;15.03;55.15;100572.47;3512624;28;20499;-81
2021/10/30 03:36:54;;;;;;;3.70;3.03;;;;;;;14.98;55.55;100571.41;3512595;28;20090;-81
2021/10/30 03:38:35;;;;;;;3.60;2.95;;;;;;;15.02;55.23;100568.13;3511549;28;20048;-82
2021/10/30 03:40:16;;;;;;;4.35;2.85;;;;;;;14.99;55.41;100571.19;3504096;28;20051;-83
2021/10/30 03:41:56;;;;;;;3.05;2.65;;;;;;;14.96;55.47;100562.72;3497364;28;20055;-82
2021/10/30 03:43:37;;;;;;;3.65;2.60;;;;;;;14.93;55.50;100565.81;3494693;28;20511;-83
2021/10/30 03:45:18;;;;;;;3.30;2.70;;;;;;;14.91;55.56;100565.19;3496658;28;20037;-81
2021/10/30 03:46:59;;;;;;;5.23;3.07;;;;;;;14.89;55.66;100570.75;3498034;28;20139;-82
2021/10/30 03:48:40;;;;;;;5.82;3.05;;;;;;;14.89;55.54;100564.56;3496821;28;20315;-81
2021/10/30 03:50:20;;;;;;;4.75;2.85;;;;;;;14.87;55.57;100563.94;3505090;28;20040;-81
2021/10/30 03:52:02;;;;;;;3.53;3.22;;;;;;;14.88;55.78;100563.75;3510329;28;20490;-81
2021/10/30 03:53:43;;;;;;;4.95;2.90;;;;;;;14.90;55.72;100571.59;3512261;28;20104;-81
2021/10/30 03:55:23;;;;;;;2.92;2.63;;;;;;;14.91;55.52;100571.38;3510757;28;20463;-82
2021/10/30 03:57:04;;;;;;;5.57;3.05;;;;;;;14.92;55.60;100573.06;3512550;28;20078;-81
2021/10/30 03:58:45;;;;;;;5.65;3.03;;;;;;;14.93;55.59;100571.19;3513907;28;20044;-81
2021/10/30 04:00:26;;;;;;;3.40;3.08;;;;;;;14.93;55.74;100571.19;3500319;28;20131;-81
2021/10/30 04:02:07;;;;;;;4.38;3.08;;;;;;;14.91;55.69;100565.19;3499013;28;20083;-81
2021/10/30 04:03:47;;;;;;;6.93;3.13;;;;;;;14.89;55.92;100565.38;3498241;28;20045;-80
2021/10/30 04:05:28;;;;;;;3.45;3.10;;;;;;;14.87;55.81;100566.59;3499098;28;20054;-81
2021/10/30 04:07:11;;;;;;;4.40;3.20;;;;;;;14.87;55.75;100566.59;3498767;28;20048;-82
2021/10/30 04:08:55;;;;;;;5.68;3.17;;;;;;;14.87;55.91;100555.88;3499698;28;20041;-81
2021/10/30 04:10:35;;;;;;;6.07;3.50;;;;;;;14.91;56.03;100557.13;3510778;28;20063;-82
2021/10/30 04:12:16;;;;;;;4.03;3.10;;;;;;;14.95;56.12;100550.34;3513121;28;20040;-81
2021/10/30 04:13:57;;;;;;;4.00;2.70;;;;;;;14.98;56.16;100553.44;3514607;28;20036;-82
2021/10/30 04:15:37;;;;;;;4.13;3.25;;;;;;;15.03;55.63;100550.97;3514626;28;20044;-82
2021/10/30 04:17:18;;;;;;;5.30;3.05;;;;;;;15.12;55.74;100546.25;3514100;28;20044;-81
2021/10/30 04:18:59;;;;;;;4.28;3.65;;;;;;;15.13;55.54;100539.84;3512877;28;20068;-82
2021/10/30 04:20:39;;;;;;;3.78;3.28;;;;;;;15.14;55.39;100540.69;3499874;28;20051;-81
2021/10/30 04:22:20;;;;;;;3.42;2.85;;;;;;;15.09;55.38;100538.59;3497183;28;20047;-81
2021/10/30 04:24:02;;;;;;;6.95;3.50;;;;;;;15.15;55.38;100537.78;3499619;28;20123;-83
2021/10/30 04:25:43;;;;;;;;;;;;;;;15.24;55.25;100546.50;3500186;28;20055;-82
2021/10/30 04:27:23;;;;;;;4.32;2.80;;;;;;;15.14;55.34;100548.75;3499820;28;20018;-82
2021/10/30 04:29:04;;;;;;;4.70;3.85;;;;;;;15.04;55.37;100536.50;3498404;28;20522;-83
2021/10/30 04:30:45;;;;;;;4.22;3.38;;;;;;;15.04;55.46;100547.25;3498848;28;20086;-81
2021/10/30 04:32:26;;;;;;;4.50;2.80;;;;;;;15.04;55.60;100546.44;3498637;28;20526;-82
2021/10/30 04:34:07;;;;;;;4.70;3.78;;;;;;;15.07;55.92;100548.72;3499318;28;20553;-81
2021/10/30 04:35:48;;;;;;;4.22;3.65;;;;;;;15.07;55.60;100545.19;3498439;28;20525;-82
2021/10/30 04:37:29;;;;;;;5.65;3.95;;;;;;;15.05;55.66;100537.38;3498380;28;20044;-82
2021/10/30 04:39:10;;;;;;;6.38;3.75;;;;;;;15.04;55.66;100530.31;3507498;28;20500;-83
2021/10/30 04:40:50;;;;;;;6.18;4.43;;;;;;;15.04;55.61;100549.94;3519683;28;20040;-80
2021/10/30 04:42:32;;;;;;;4.95;3.75;;;;;;;14.99;55.77;100551.59;3517325;28;20135;-81
2021/10/30 04:44:13;;;;;;;6.95;4.10;;;;;;;14.97;55.68;100541.06;3514524;28;20039;-84
2021/10/30 04:45:53;;;;;;;4.25;3.70;;;;;;;14.96;55.69;100554.69;3512885;28;20044;-82
2021/10/30 04:47:34;;;;;;;6.90;3.70;;;;;;;14.92;56.00;100553.41;3511359;28;20047;-81
2021/10/30 04:49:15;;;;;;;7.18;4.07;;;;;;;14.84;55.85;100546.38;3505640;28;20048;-80
2021/10/30 04:50:56;;;;;;;5.50;3.83;;;;;;;14.88;56.20;100554.88;3496424;28;20083;-79
2021/10/30 04:52:36;;;;;;;5.78;3.35;;;;;;;14.88;56.02;100562.91;3492095;28;20068;-79
2021/10/30 04:54:17;;;;;;;4.80;3.25;;;;;;;14.93;56.05;100547.03;3492173;28;20036;-82
2021/10/30 04:55:58;;;;;;;4.53;3.75;;;;;;;14.98;56.02;100556.13;3496612;28;20407;-79
2021/10/30 04:57:38;;;;;;;6.60;3.50;;;;;;;15.01;55.86;100552.22;3496896;28;20068;-79
2021/10/30 04:59:19;;;;;;;4.53;3.20;;;;;;;14.99;55.79;100549.72;3505042;28;20087;-79
2021/10/30 05:01:01;;;;;;;6.05;3.63;;;;;;;14.99;55.88;100548.91;3509228;28;20078;-79
2021/10/30 05:02:41;;;;;;;7.20;3.58;;;;;;;14.99;55.81;100549.72;3507586;28;20082;-79
2021/10/30 05:04:22;;;;;;;7.20;3.55;;;;;;;15.01;56.03;100558.41;3510501;28;20465;-79
2021/10/30 05:06:03;;;;;;;4.10;3.38;;;;;;;15.05;55.69;100558.84;3511260;28;20043;-79
2021/10/30 05:07:44;;;;;;;3.47;3.05;;;;;;;15.08;56.02;100560.31;3512538;28;20047;-79
2021/10/30 05:09:24;;;;;;;5.95;3.67;;;;;;;15.09;55.72;100553.88;3502860;28;20051;-80
2021/10/30 05:11:07;;;;;;;3.88;2.90;;;;;;;15.13;55.58;100549.78;3498128;28;20058;-80
2021/10/30 05:12:48;;;;;;;4.72;3.63;;;;;;;15.16;55.87;100550.19;3496923;28;20037;-79
2021/10/30 05:14:29;;;;;;;6.28;3.95;;;;;;;15.16;55.73;100549.38;3497172;28;20047;-79
2021/10/30 05:16:10;;;;;;;5.97;3.55;;;;;;;15.14;55.77;100551.41;3496878;28;20487;-79
2021/10/30 05:17:50;;;;;;;4.97;3.25;;;;;;;15.11;55.53;100558.03;3497198;28;20059;-80
2021/10/30 05:19:31;;;;;;;4.75;3.35;;;;;;;15.05;55.75;100553.47;3507226;28;20052;-78
2021/10/30 05:21:12;;;;;;;4.90;3.22;;;;;;;15.01;55.56;100554.91;3509922;28;20043;-78
2021/10/30 05:22:53;;;;;;;8.95;3.92;;;;;;;14.97;56.07;100534.84;3508815;28;20079;-79
2021/10/30 05:24:33;;;;;;;5.72;3.10;;;;;;;15.00;55.83;100550.56;3510794;28;20044;-79
2021/10/30 05:26:14;;;;;;;4.93;4.07;;;;;;;15.06;55.81;100552.44;3510725;28;20110;-82
2021/10/30 05:27:55;;;;;;;7.45;4.28;;;;;;;15.12;55.67;100551.63;3510717;28;20040;-79
2021/10/30 05:29:35;;;;;;;5.05;3.38;;;;;;;15.19;55.68;100565.88;3498333;28;20058;-78
2021/10/30 05:31:16;;;;;;;5.13;3.25;;;;;;;15.21;55.73;100558.47;3496252;28;20499;-79
2021/10/30 05:32:57;;;;;;;5.30;3.65;;;;;;;15.19;55.76;100554.31;3497390;28;20059;-80
2021/10/30 05:34:56;;;;;;;6.22;3.88;;;;;;;15.23;55.53;100552.88;3500984;28;20060;-80
2021/10/30 05:37:00;;;;;;;6.28;3.30;;;;;;;15.25;55.69;100561.56;3472951;28;20052;-79
2021/10/30 05:38:57;;;;;;;2.67;2.47;;;;;;;15.26;55.89;100555.19;3509506;28;20050;-79
2021/10/30 05:40:38;;;;;;;3.28;2.90;;;;;;;15.30;55.61;100561.78;3514050;28;20036;-80
2021/10/30 05:42:19;;;;;;;4.68;3.45;;;;;;;15.39;55.43;100560.56;3513443;28;20067;-81
2021/10/30 05:44:02;;;;;;;3.78;3.40;;;;;;;15.44;55.15;100551.91;3510061;28;20075;-80
2021/10/30 05:45:44;;;;;;;4.45;3.15;;;;;;;15.50;55.23;100559.13;3510232;28;20108;-81
2021/10/30 05:47:25;;;;;;;4.45;3.63;;;;;;;15.57;55.16;100556.44;3511078;28;20364;-80
2021/10/30 05:49:07;;;;;;;5.00;3.20;;;;;;;15.64;54.78;100558.09;3499784;28;20043;-79
2021/10/30 05:50:47;;;;;;;4.97;3.10;;;;;;;15.73;54.88;100571.38;3495801;28;20103;-79
2021/10/30 05:52:28;;;;;;;4.32;3.13;;;;;;;15.78;54.69;100564.34;3494159;28;20036;-79
2021/10/30 05:54:09;;;;;;;3.80;2.78;;;;;;;15.87;54.85;100571.13;3495677;28;20044;-78
2021/10/30 05:55:49;;;;;;;3.90;3.38;;;;;;;15.99;54.27;100571.34;3495642;28;20048;-80
2021/10/30 05:57:30;;;;;;;6.53;3.45;;;;;;;16.16;54.08;100574.44;3498336;28;20052;-80
2021/10/30 05:59:11;;;;;;;5.55;3.28;;;;;;;16.27;54.21;100576.47;3504588;28;20036;-80
2021/10/30 06:00:52;;;;;;;4.82;3.05;;;;;;;16.48;53.80;100566.50;3504167;28;20123;-78
2021/10/30 06:02:33;;;;;;;10.15;3.45;;;;;;;16.70;52.87;100567.88;3499028;28;20047;-78
2021/10/30 06:04:14;;;;;;;4.83;3.47;;;;;;;17.03;52.36;100571.47;3509276;28;20093;-78
2021/10/30 06:05:55;;;;;;;5.78;3.65;;;;;;;17.25;51.86;100569.28;3509807;28;20321;-77
2021/10/30 06:07:35;;;;;;;6.63;3.30;;;;;;;17.52;51.44;100569.94;3499004;28;20078;-77
2021/10/30 06:09:17;;;;;;;4.47;3.40;;;;;;;17.81;51.22;100580.13;3496239;28;20132;-80
2021/10/30 06:10:58;;;;;;;3.65;3.17;;;;;;;17.97;50.58;100577.91;3502972;28;20388;-81
2021/10/30 06:12:40;;;;;;;8.27;3.30;;;;;;;18.20;49.92;100572.69;3510116;28;20050;-80
2021/10/30 06:14:21;;;;;;;6.47;3.90;;;;;;;18.50;49.64;100577.34;3502219;28;20040;-78
2021/10/30 06:16:01;;;;;;;6.90;3.13;;;;;;;18.82;49.21;100572.66;3495130;28;20043;-77
2021/10/30 06:17:42;;;;;;;5.30;3.83;;;;;;;19.08;48.05;100567.97;3481303;28;20428;-79
2021/10/30 06:19:24;;;;;;;9.70;3.92;;;;;;;19.29;47.92;100569.31;3493117;28;20496;-79
2021/10/30 06:21:05;;;;;;;4.63;3.53;;;;;;;19.41;47.40;100570.16;3495723;28;20040;-79
2021/10/30 06:22:46;;;;;;;5.50;4.00;;;;;;;19.48;47.06;100573.59;3494799;28;20539;-78
2021/10/30 06:24:30;;;;;;;5.88;4.25;;;;;;;19.52;46.85;100580.19;3498617;28;20063;-78
2021/10/30 06:26:10;;;;;;;6.63;4.27;;;;;;;19.51;46.87;100573.13;3494752;28;20131;-78
2021/10/30 06:27:55;;;;;;;10.32;4.10;;;;;;;19.50;46.50;100571.47;3495276;28;20040;-82
2021/10/30 06:29:36;;;;;;;4.47;3.70;;;;;;;19.51;46.96;100573.13;3494793;28;20048;-78
2021/10/30 06:31:17;;;;;;;7.03;4.60;;;;;;;19.63;46.64;100564.22;3498143;28;20032;-80
2021/10/30 06:32:57;;;;;;;7.40;4.97;;;;;;;19.80;46.09;100568.75;3495737;28;20419;-79
2021/10/30 06:34:38;;;;;;;6.70;3.73;;;;;;;20.12;45.79;100567.59;3510361;28;20412;-79
2021/10/30 06:36:19;;;;;;;5.83;3.77;;;;;;;20.40;45.17;100566.84;3502088;28;20052;-80
2021/10/30 06:37:59;;;;;;;5.33;4.37;;;;;;;20.67;44.61;100572.56;3505467;28;20127;-82
2021/10/30 06:39:40;;;;;;;4.60;3.90;;;;;;;20.95;44.27;100569.06;3508475;28;20032;-80
2021/10/30 06:41:21;;;;;;;5.03;4.10;;;;;;;21.24;43.77;100569.88;3502582;28;20045;-81
2021/10/30 06:43:01;;;;;;;6.93;3.70;;;;;;;21.47;43.43;100562.72;3484524;28;20110;-81
2021/10/30 06:44:44;;;;;;;4.43;3.23;;;;;;;21.41;43.30;100572.66;3478691;28;20041;-82
2021/10/30 06:46:25;;;;;;;4.20;3.80;;;;;;;21.46;42.96;100571.94;3496056;28;20032;-81
2021/10/30 06:48:06;;;;;;;7.37;3.63;;;;;;;21.51;43.10;100564.72;3511978;28;20044;-81
2021/10/30 06:49:46;;;;;;;7.23;4.43;;;;;;;21.55;42.67;100551.47;3510683;28;20040;-80
2021/10/30 06:51:27;;;;;;;7.33;4.40;;;;;;;21.81;42.52;100579.00;3501061;28;20052;-81
2021/10/30 06:53:08;;;;;;;4.90;3.83;;;;;;;21.80;42.23;100561.91;3496135;28;20051;-80
2021/10/30 06:54:48;;;;;;;4.47;3.10;;;;;;;21.97;42.13;100587.16;3495465;28;20041;-80
2021/10/30 06:56:29;;;;;;;10.00;4.23;;;;;;;22.08;41.72;100580.00;3505225;28;20419;-81
2021/10/30 06:58:10;;;;;;;5.30;4.20;;;;;;;22.34;41.25;100580.38;3511193;28;20155;-80
2021/10/30 06:59:51;;;;;;;4.83;3.37;;;;;;;22.55;40.65;100585.00;3504227;28;20036;-79
2021/10/30 07:01:35;;;;;;;6.93;3.90;;;;;;;22.77;40.41;100571.44;3505533;28;20512;-81
2021/10/30 07:03:16;;;;;;;6.80;4.22;;;;;;;22.93;40.08;100575.16;3497321;28;20044;-80
2021/10/30 07:04:59;;;;;;;6.80;3.77;;;;;;;23.05;39.70;100584.03;3502959;28;20039;-79
2021/10/30 07:06:41;;;;;;;7.45;4.22;;;;;;;22.78;39.64;100570.34;3512090;28;20051;-82
2021/10/30 07:08:22;;;;;;;8.15;4.43;;;;;;;22.44;39.98;100550.66;3501906;28;20045;-82
2021/10/30 07:10:04;;;;;;;6.60;4.20;;;;;;;22.31;40.45;100572.75;3497361;28;20135;-80
2021/10/30 07:11:45;;;;;;;6.25;4.55;;;;;;;22.15;40.85;100580.66;3511330;28;20040;-79
2021/10/30 07:13:26;;;;;;;5.75;4.15;;;;;;;22.02;41.01;100597.28;3511882;28;20048;-79
2021/10/30 07:15:09;;;;;;;10.27;4.20;;;;;;;21.87;41.37;100587.00;3509358;28;20644;-81
2021/10/30 07:16:50;;;;;;;4.82;4.22;;;;;;;21.94;41.25;100584.09;3510811;28;20035;-79
2021/10/30 07:18:31;;;;;;;5.97;4.83;;;;;;;21.93;41.28;100582.47;3502786;28;20501;-80
2021/10/30 07:20:13;;;;;;;5.85;4.70;;;;;;;21.89;41.21;100593.00;3502573;28;20059;-81
2021/10/30 07:21:54;;;;;;;6.40;4.73;;;;;;;21.78;41.36;100594.72;3506444;28;20048;-79
2021/10/30 07:23:37;;;;;;;7.35;4.50;;;;;;;21.71;41.38;100590.53;3515508;28;20040;-78
2021/10/30 07:25:20;;;;;;;4.85;4.32;;;;;;;21.68;41.57;100596.44;3497515;28;20051;-79
2021/10/30 07:27:02;;;;;;;6.85;4.65;;;;;;;21.74;41.63;100593.59;3492681;28;20041;-79
2021/10/30 07:28:43;;;;;;;6.70;4.70;;;;;;;21.72;41.59;100586.75;3501092;28;20119;-76
2021/10/30 07:30:25;;;;;;;12.73;4.23;;;;;;;21.77;41.30;100584.13;3495903;28;20094;-79
2021/10/30 07:32:07;;;;;;;7.85;4.32;;;;;;;21.78;41.45;100585.75;3503011;28;20083;-78
2021/10/30 07:33:49;;;;;;;6.35;5.10;;;;;;;21.91;41.20;100584.59;3501954;28;20044;-79
2021/10/30 07:35:31;;;;;;;10.00;5.18;;;;;;;21.85;41.24;100591.84;3509149;28;20036;-78
2021/10/30 07:37:13;;;;;;;7.40;5.22;;;;;;;21.99;40.97;100595.03;3509334;28;20130;-79
2021/10/30 07:38:53;;;;;;;;;;;;;;;22.38;40.88;100589.66;3509715;28;20122;-80
2021/10/30 07:40:35;;;;;;;6.53;4.80;;;;;;;22.23;40.71;100598.44;3507521;28;19919;-80
2021/10/30 07:42:16;;;;;;;8.23;4.40;;;;;;;22.27;40.64;100587.88;3496185;28;20805;-78
2021/10/30 07:43:58;;;;;;;8.73;5.70;;;;;;;22.21;40.70;100589.72;3496656;28;20287;-79
2021/10/30 07:45:39;;;;;;;7.47;4.72;;;;;;;22.25;40.66;100604.41;3496917;28;20079;-79
2021/10/30 07:47:23;;;;;;;6.50;5.40;;;;;;;22.19;40.52;100602.72;3497928;28;20037;-78
2021/10/30 07:49:03;;;;;;;7.82;4.85;;;;;;;22.17;40.85;100602.91;3496793;28;20052;-80
2021/10/30 07:50:45;;;;;;;7.93;5.05;;;;;;;21.99;41.03;100604.03;3494182;28;20052;-80
2021/10/30 07:52:26;;;;;;;5.87;5.27;;;;;;;21.83;41.31;100598.59;3497217;28;20068;-79
2021/10/30 07:54:08;;;;;;;7.50;4.57;;;;;;;21.62;41.58;100595.53;3509030;28;20888;-80